TX22 weather

Leroux Airport
Argyle, Texas, United States

Public forecast

Using degrees Fahrenheit for public forecast. Weather courtesy of forecast.io.

METAR (pilot weather report)

Closest report is Denton Municipal Airport, 6.3 nm (11.7 km) NNW. Retrieved 2019/09/22 11:26 UTC (18 minutes ago):

KDTO 221126Z 17012KT 10SM SCT022 24/21 A3000 RMK AO2 T02440206

TAF (pilot weather forecast)

Closest forecast is Fort Worth Alliance Airport, 10.7 nm (19.9 km) SW. Retrieved 2019/09/22 06:22 UTC (5 hours ago):

TAF KAFW 220520Z 2206/2306 15015KT P6SM FEW060 SCT200 FM221100 17013KT P6SM BKN025 BKN250 FM221500 18016KT P6SM SCT060